Aviation Digital Data Service (ADDS)

Output produced by METARs form (1202 UTC 26 March 2019)
found at http://www.aviationweather.gov/metar/data/
 
FOOB 261100Z /////KT 9999 SCT013 30/21 Q1012
FOON 261100Z 24003KT 9999 SCT013 31/23 Q1015
FOGR 261100Z /////KT 9999 SCT012 32/24 Q////
FOOR 261100Z /////KT 9999 SCT006 30/24 Q////
FOOL 261200Z 20007KT 9999 FEW016 31/24 Q1010 NOSIG
TAF FOOL 261100Z 2612/2718 22008KT 9999 SCT012 FEW020CB BKN030 
     PROB30 
     TEMPO 2618/2624 TS
       
FOOK 261100Z /////KT 9999 BKN011 30/22 Q////
FOGM 261100Z /////KT 9999 FEW013TCU BKN033 31/26 Q////
FOGO 261100Z 28006KT 9999 SCT013 29/22 Q////
FOOG 261100Z 19008KT 160V230 9999 FEW012 31/25 Q1011
TAF COR FOOG 261100Z 2612/2712 21009KT 9999 SCT012 FEW020CB BKN035 
     PROB30 
     TEMPO 2618/2624 TS
       
FOOT 261100Z 18004KT 9999 SCT013 32/25 Q////